createdAt,value
2022-11-21T00:01:24.451Z,33.67
2022-11-21T00:03:52.219Z,43.95
2022-11-21T00:06:20.614Z,38.72
2022-11-21T00:08:47.981Z,39.30
2022-11-21T00:11:15.863Z,38.15
2022-11-21T00:13:43.652Z,35.30
2022-11-21T00:16:14.522Z,38.47
2022-11-21T00:18:42.419Z,41.05
2022-11-21T00:21:15.995Z,37.97
2022-11-21T00:23:44.243Z,39.90
2022-11-21T00:26:13.350Z,43.97
2022-11-21T00:28:40.928Z,41.33
2022-11-21T00:31:08.507Z,38.35
2022-11-21T00:33:36.920Z,37.53
2022-11-21T00:36:09.308Z,41.80
2022-11-21T00:38:36.777Z,39.75
2022-11-21T00:41:04.483Z,40.85
2022-11-21T00:43:32.104Z,41.30
2022-11-21T00:46:01.345Z,40.83
2022-11-21T00:48:29.943Z,44.08
2022-11-21T00:50:57.247Z,41.75
2022-11-21T00:53:24.556Z,43.40
2022-11-21T00:55:51.861Z,40.63
2022-11-21T00:58:19.116Z,41.90
2022-11-21T01:00:46.480Z,39.28
2022-11-21T01:03:13.867Z,39.85
2022-11-21T01:05:41.243Z,43.45
2022-11-21T01:08:08.643Z,44.80
2022-11-21T01:10:36.337Z,48.10
2022-11-21T01:13:03.756Z,42.03
2022-11-21T01:15:31.233Z,43.50
2022-11-21T01:17:58.583Z,43.70
2022-11-21T01:20:25.962Z,43.85
2022-11-21T01:22:53.240Z,43.22
2022-11-21T01:25:21.060Z,45.42
2022-11-21T01:27:48.362Z,50.70
2022-11-21T01:30:15.848Z,46.53
2022-11-21T01:32:43.140Z,46.00
2022-11-21T01:35:10.377Z,43.30
2022-11-21T01:37:37.669Z,46.40
2022-11-21T01:40:05.307Z,43.47
2022-11-21T01:43:04.734Z,41.83
2022-11-21T01:46:07.866Z,46.03
2022-11-21T01:48:47.128Z,49.60
2022-11-21T01:51:44.881Z,48.00
2022-11-21T01:54:30.084Z,48.67
2022-11-21T01:57:05.551Z,47.72
2022-11-21T01:59:39.664Z,47.25
2022-11-21T02:02:09.091Z,46.30
2022-11-21T02:04:37.312Z,48.80
2022-11-21T02:07:06.898Z,45.08
2022-11-21T02:09:38.893Z,45.28
2022-11-21T02:12:11.212Z,45.35
2022-11-21T02:14:39.996Z,48.30
2022-11-21T02:17:09.379Z,45.72
2022-11-21T02:19:56.267Z,50.03
2022-11-21T02:22:23.484Z,48.05
2022-11-21T02:25:11.837Z,49.38
2022-11-21T02:27:39.246Z,42.35
2022-11-21T02:30:09.137Z,46.15
2022-11-21T02:32:39.491Z,48.08
2022-11-21T02:35:07.940Z,40.33
2022-11-21T02:37:37.231Z,43.58
2022-11-21T02:40:18.075Z,44.53
2022-11-21T02:43:03.670Z,45.65
2022-11-21T02:45:35.707Z,48.38
2022-11-21T02:48:04.386Z,40.85
2022-11-21T02:50:37.090Z,47.10
2022-11-21T02:53:06.321Z,48.63
2022-11-21T02:55:33.961Z,47.30
2022-11-21T02:58:04.818Z,44.72
2022-11-21T03:00:34.129Z,47.28
2022-11-21T03:03:01.925Z,46.03
2022-11-21T03:05:29.654Z,50.20
2022-11-21T03:07:56.937Z,46.22
2022-11-21T03:10:24.362Z,49.55
2022-11-21T03:12:51.627Z,50.28
2022-11-21T03:15:18.986Z,50.22
2022-11-21T03:17:49.587Z,56.58
2022-11-21T03:20:16.867Z,54.67
2022-11-21T03:22:44.132Z,63.65
2022-11-21T03:25:11.406Z,51.85
2022-11-21T03:27:38.650Z,51.95
2022-11-21T03:30:06.698Z,55.95
2022-11-21T03:32:33.963Z,53.58
2022-11-21T03:35:01.271Z,58.92
2022-11-21T03:37:28.641Z,50.20
2022-11-21T03:39:55.873Z,53.33
2022-11-21T03:42:23.125Z,51.85
2022-11-21T03:44:50.445Z,51.95
2022-11-21T03:47:17.694Z,53.97
2022-11-21T03:49:44.992Z,48.33
2022-11-21T03:52:12.235Z,47.92
2022-11-21T03:54:39.509Z,45.72
2022-11-21T03:57:06.809Z,49.45
2022-11-21T03:59:34.143Z,42.65
2022-11-21T04:02:01.530Z,44.72
2022-11-21T04:04:29.165Z,46.20
2022-11-21T04:06:56.624Z,45.75
2022-11-21T04:09:23.962Z,50.30
2022-11-21T04:11:51.247Z,48.40
2022-11-21T04:14:18.498Z,49.00
2022-11-21T04:16:45.841Z,52.03
2022-11-21T04:19:13.112Z,48.40
2022-11-21T04:21:40.487Z,48.45
2022-11-21T04:24:08.086Z,56.53
2022-11-21T04:26:35.400Z,57.75
2022-11-21T04:29:02.752Z,57.58
2022-11-21T04:31:30.071Z,52.38
2022-11-21T04:33:57.375Z,54.25
2022-11-21T04:36:24.760Z,57.53
2022-11-21T04:38:52.077Z,57.05
2022-11-21T04:41:19.323Z,61.13
2022-11-21T04:43:46.631Z,59.17
2022-11-21T04:46:14.042Z,54.00
2022-11-21T04:48:41.319Z,52.85
2022-11-21T04:51:08.679Z,56.92
2022-11-21T04:53:41.432Z,53.58
2022-11-21T04:56:10.266Z,52.80
2022-11-21T04:58:37.580Z,54.58
2022-11-21T05:01:08.984Z,59.00
2022-11-21T05:03:36.884Z,54.92
2022-11-21T05:06:04.351Z,57.10
2022-11-21T05:08:31.627Z,52.05
2022-11-21T05:11:17.405Z,57.42
2022-11-21T05:13:44.687Z,55.50
2022-11-21T05:16:11.991Z,55.33
2022-11-21T05:18:39.311Z,53.13
2022-11-21T05:21:06.586Z,57.70
2022-11-21T05:23:33.946Z,53.05
2022-11-21T05:26:01.197Z,57.42
2022-11-21T05:28:28.501Z,63.70
2022-11-21T05:30:55.732Z,55.42
2022-11-21T05:33:23.046Z,57.30
2022-11-21T05:35:50.363Z,58.90
2022-11-21T05:38:17.746Z,55.55
2022-11-21T05:40:45.022Z,58.78
2022-11-21T05:43:31.981Z,60.80
2022-11-21T05:45:59.392Z,63.78
2022-11-21T05:48:26.890Z,66.50
2022-11-21T05:50:54.261Z,65.28
2022-11-21T05:53:21.532Z,64.80
2022-11-21T05:55:49.831Z,67.97
2022-11-21T05:58:17.170Z,69.05
2022-11-21T06:00:44.476Z,69.65
2022-11-21T06:03:27.229Z,59.17
2022-11-21T06:06:14.703Z,70.63
2022-11-21T06:08:44.549Z,66.20
2022-11-21T06:11:16.490Z,61.22
2022-11-21T06:13:44.094Z,67.05
2022-11-21T06:16:14.106Z,64.10
2022-11-21T06:18:43.898Z,80.47
2022-11-21T06:21:15.288Z,65.20
2022-11-21T06:23:42.556Z,71.25
2022-11-21T06:26:14.117Z,71.03
2022-11-21T06:28:42.300Z,72.20
2022-11-21T06:31:15.683Z,76.47
2022-11-21T06:33:43.561Z,80.47
2022-11-21T06:36:13.316Z,80.93
2022-11-21T06:38:40.704Z,82.13
2022-11-21T06:41:18.046Z,64.78
2022-11-21T06:43:46.048Z,83.28
2022-11-21T06:46:14.438Z,79.78
2022-11-21T06:48:43.143Z,79.10
2022-11-21T06:51:17.414Z,78.45
2022-11-21T06:53:45.054Z,69.15
2022-11-21T06:56:12.725Z,71.03
2022-11-21T06:58:40.059Z,68.47
2022-11-21T07:01:09.784Z,79.70
2022-11-21T07:03:37.419Z,70.60
2022-11-21T07:06:05.653Z,79.75
2022-11-21T07:08:35.945Z,74.00
2022-11-21T07:13:53.308Z,88.90
2022-11-21T07:16:20.619Z,70.90
2022-11-21T07:18:48.029Z,69.70
2022-11-21T07:21:15.395Z,65.07
2022-11-21T07:23:42.701Z,65.57
2022-11-21T07:26:10.984Z,80.28
2022-11-21T07:28:38.318Z,77.43
2022-11-21T07:31:12.916Z,65.45
2022-11-21T07:33:43.081Z,72.90
2022-11-21T07:36:11.481Z,65.22
2022-11-21T07:38:38.953Z,65.85
2022-11-21T07:41:06.236Z,63.03
2022-11-21T07:43:33.512Z,67.60
2022-11-21T07:46:00.766Z,62.20
2022-11-21T07:48:28.114Z,63.88
2022-11-21T07:50:55.467Z,59.47
2022-11-21T07:53:22.747Z,53.55
2022-11-21T07:55:50.107Z,63.95
2022-11-21T07:58:18.025Z,52.15
2022-11-21T08:00:45.470Z,55.38
2022-11-21T08:03:13.707Z,42.63
2022-11-21T08:05:42.696Z,45.03
2022-11-21T08:08:11.467Z,43.45
2022-11-21T08:10:40.949Z,34.63
2022-11-21T08:13:08.434Z,31.63
2022-11-21T08:15:36.604Z,27.08
2022-11-21T08:18:11.623Z,21.05
2022-11-21T08:20:39.248Z,17.73
2022-11-21T08:23:07.205Z,22.13
2022-11-21T08:25:36.913Z,21.17
2022-11-21T08:28:04.822Z,16.15
2022-11-21T08:30:33.226Z,15.82
2022-11-21T08:33:01.407Z,14.82
2022-11-21T08:35:30.670Z,14.57
2022-11-21T08:37:59.166Z,15.95
2022-11-21T08:40:28.062Z,14.18
2022-11-21T08:43:14.502Z,17.50
2022-11-21T08:45:42.116Z,15.05
2022-11-21T08:48:11.797Z,16.55
2022-11-21T08:50:39.352Z,18.25
2022-11-21T08:53:06.668Z,17.30
2022-11-21T08:55:34.009Z,19.80
2022-11-21T08:58:01.384Z,18.40
2022-11-21T09:00:28.967Z,18.23
2022-11-21T09:02:56.323Z,16.70
2022-11-21T09:05:23.693Z,23.67
2022-11-21T09:07:58.266Z,18.38
2022-11-21T09:12:57.280Z,16.27
2022-11-21T09:15:43.435Z,19.02
2022-11-21T09:18:11.493Z,16.67
2022-11-21T09:20:41.189Z,17.88
2022-11-21T09:23:13.247Z,19.48
2022-11-21T09:25:41.056Z,14.75
2022-11-21T09:28:10.249Z,11.50
2022-11-21T09:30:38.134Z,9.68
2022-11-21T09:33:11.728Z,8.95
2022-11-21T09:35:39.795Z,10.43
2022-11-21T09:38:07.286Z,12.25
2022-11-21T09:40:36.182Z,9.45
2022-11-21T09:43:16.589Z,11.93
2022-11-21T09:45:50.406Z,10.52
2022-11-21T09:48:34.295Z,11.67
2022-11-21T09:51:07.753Z,7.72
2022-11-21T09:53:39.566Z,8.52
2022-11-21T09:56:12.968Z,7.45
2022-11-21T09:58:43.902Z,9.20
2022-11-21T10:01:13.233Z,8.57
2022-11-21T10:03:50.525Z,7.22
2022-11-21T10:06:22.145Z,6.35
2022-11-21T10:09:26.748Z,8.95
2022-11-21T10:12:38.402Z,7.45
2022-11-21T10:15:32.156Z,10.48
2022-11-21T10:18:14.455Z,10.40
2022-11-21T10:20:41.764Z,7.40
2022-11-21T10:23:36.702Z,8.75
2022-11-21T10:26:31.539Z,9.40
2022-11-21T10:29:14.935Z,9.30
2022-11-21T10:31:43.259Z,6.70
2022-11-21T10:34:25.440Z,8.10
2022-11-21T10:36:57.915Z,6.78
2022-11-21T10:40:03.451Z,8.35
2022-11-21T10:42:35.183Z,11.32
2022-11-21T10:45:19.239Z,7.30
2022-11-21T10:47:49.805Z,8.75
2022-11-21T10:50:26.146Z,10.65
2022-11-21T10:53:28.354Z,6.85
2022-11-21T10:56:20.315Z,8.55
2022-11-21T10:58:56.264Z,7.38
2022-11-21T11:01:33.674Z,7.72
2022-11-21T11:07:00.137Z,7.00
2022-11-21T11:09:33.395Z,8.73
2022-11-21T11:12:46.926Z,9.05
2022-11-21T11:15:23.765Z,7.75
2022-11-21T11:18:09.124Z,9.57
2022-11-21T11:20:45.042Z,9.48
2022-11-21T11:23:22.318Z,9.60
2022-11-21T11:25:57.937Z,11.60
2022-11-21T11:28:27.251Z,9.30
2022-11-21T11:30:56.107Z,7.40
2022-11-21T11:33:49.723Z,6.32
2022-11-21T11:36:47.178Z,8.63
2022-11-21T11:39:23.398Z,6.32
2022-11-21T11:42:27.477Z,6.40
2022-11-21T11:45:33.624Z,6.38
2022-11-21T11:48:04.404Z,6.57
2022-11-21T11:50:37.012Z,7.13
2022-11-21T11:53:26.305Z,9.50
2022-11-21T11:55:59.196Z,4.85
2022-11-21T11:58:49.556Z,6.55
2022-11-21T12:01:42.426Z,9.68
2022-11-21T12:04:16.511Z,5.68
2022-11-21T12:10:02.553Z,4.95
2022-11-21T12:12:42.423Z,7.93
2022-11-21T12:15:49.106Z,6.28
2022-11-21T12:18:22.274Z,10.50
2022-11-21T12:20:49.563Z,5.72
2022-11-21T12:23:18.711Z,7.40
2022-11-21T12:25:58.609Z,4.18
2022-11-21T12:29:04.659Z,7.93
2022-11-21T12:32:02.513Z,5.95
2022-11-21T12:34:53.338Z,5.72
2022-11-21T12:37:54.707Z,3.58
2022-11-21T12:40:36.721Z,4.25
2022-11-21T12:43:29.744Z,3.33
2022-11-21T12:46:10.568Z,6.88
2022-11-21T12:49:15.601Z,7.45
2022-11-21T12:52:23.252Z,6.72
2022-11-21T12:55:04.698Z,2.47
2022-11-21T12:57:40.871Z,2.50
2022-11-21T13:00:28.427Z,5.07
2022-11-21T13:03:19.149Z,4.40
2022-11-21T13:05:50.212Z,5.32
2022-11-21T13:08:27.502Z,7.18
2022-11-21T13:11:37.331Z,3.60
2022-11-21T13:14:18.503Z,4.75
2022-11-21T13:16:54.896Z,5.30
2022-11-21T13:19:36.028Z,5.30
2022-11-21T13:22:03.316Z,4.25
2022-11-21T13:25:21.675Z,5.80
2022-11-21T13:27:49.562Z,4.60
2022-11-21T13:30:18.505Z,3.80
2022-11-21T13:32:47.145Z,5.13
2022-11-21T13:35:20.440Z,3.05
2022-11-21T13:38:02.108Z,1.75
2022-11-21T13:40:32.021Z,5.53
2022-11-21T13:43:35.563Z,3.17
2022-11-21T13:46:03.478Z,5.63
2022-11-21T13:48:31.154Z,3.63
2022-11-21T13:51:26.224Z,2.50
2022-11-21T13:54:02.508Z,4.55
2022-11-21T13:56:37.693Z,3.75
2022-11-21T13:59:30.081Z,4.13
2022-11-21T14:02:01.040Z,5.28
2022-11-21T14:05:31.344Z,4.40
2022-11-21T14:08:13.740Z,5.53
2022-11-21T14:10:42.824Z,7.45
2022-11-21T14:13:32.994Z,6.50
2022-11-21T14:16:24.463Z,8.70
2022-11-21T14:18:53.800Z,3.38
2022-11-21T14:21:32.649Z,4.15
2022-11-21T14:24:13.211Z,3.72
2022-11-21T14:26:48.209Z,3.78
2022-11-21T14:29:37.352Z,4.68
2022-11-21T14:32:05.043Z,7.00
2022-11-21T14:34:33.158Z,4.70
2022-11-21T14:37:04.894Z,4.55
2022-11-21T14:39:38.733Z,4.63
2022-11-21T14:42:14.954Z,3.03
2022-11-21T14:44:42.980Z,5.35
2022-11-21T14:47:23.618Z,2.70
2022-11-21T14:49:55.501Z,5.60
2022-11-21T14:52:26.947Z,5.00
2022-11-21T14:55:28.591Z,4.00
2022-11-21T14:57:45.064Z,2.47
2022-11-21T15:03:21.519Z,5.15
2022-11-21T15:06:03.958Z,3.88
2022-11-21T15:11:26.130Z,6.35
2022-11-21T15:14:14.967Z,4.43
2022-11-21T15:16:47.281Z,5.75
2022-11-21T15:19:27.496Z,4.05
2022-11-21T15:22:01.165Z,3.28
2022-11-21T15:24:31.330Z,3.88
2022-11-21T15:26:59.563Z,2.88
2022-11-21T15:29:32.856Z,4.38
2022-11-21T15:32:15.621Z,3.85
2022-11-21T15:34:44.315Z,4.88
2022-11-21T15:37:18.449Z,3.28
2022-11-21T15:39:48.686Z,3.17
2022-11-21T15:42:28.551Z,5.35
2022-11-21T15:45:25.305Z,5.18
2022-11-21T15:47:53.375Z,4.00
2022-11-21T15:50:23.968Z,4.53
2022-11-21T15:52:52.601Z,3.40
2022-11-21T15:55:26.447Z,2.83
2022-11-21T15:57:53.749Z,4.25
2022-11-21T16:00:21.230Z,3.20
2022-11-21T16:02:48.585Z,5.15
2022-11-21T16:05:16.445Z,4.10
2022-11-21T16:07:43.836Z,5.03
2022-11-21T16:10:18.424Z,3.13
2022-11-21T16:12:49.743Z,3.65
2022-11-21T16:15:17.092Z,2.60
2022-11-21T16:17:45.682Z,4.38
2022-11-21T16:20:13.569Z,4.00
2022-11-21T16:22:45.858Z,4.35
2022-11-21T16:25:15.139Z,4.63
2022-11-21T16:27:42.370Z,3.88
2022-11-21T16:30:10.007Z,3.28
2022-11-21T16:32:37.306Z,4.13
2022-11-21T16:35:05.466Z,2.15
2022-11-21T16:37:33.344Z,3.75
2022-11-21T16:40:00.790Z,4.78
2022-11-21T16:42:28.112Z,4.53
2022-11-21T16:44:55.450Z,3.13
2022-11-21T16:47:22.683Z,5.47
2022-11-21T16:49:50.006Z,4.95
2022-11-21T16:52:18.189Z,6.10
2022-11-21T16:54:47.026Z,5.10
2022-11-21T16:57:14.481Z,5.07
2022-11-21T16:59:41.772Z,3.40
2022-11-21T17:02:10.938Z,4.30
2022-11-21T17:04:38.183Z,4.78
2022-11-21T17:07:05.531Z,6.45
2022-11-21T17:09:32.870Z,6.53
2022-11-21T17:12:00.161Z,4.70
2022-11-21T17:14:27.809Z,6.00
2022-11-21T17:16:55.197Z,4.80
2022-11-21T17:19:23.244Z,5.70
2022-11-21T17:21:50.529Z,4.50
2022-11-21T17:24:18.382Z,5.80
2022-11-21T17:26:45.722Z,4.28
2022-11-21T17:29:13.034Z,4.90
2022-11-21T17:31:41.812Z,5.22
2022-11-21T17:34:09.242Z,6.18
2022-11-21T17:36:36.522Z,4.28
2022-11-21T17:39:04.089Z,4.57
2022-11-21T17:41:31.475Z,6.53
2022-11-21T17:44:00.507Z,7.50
2022-11-21T17:46:28.370Z,9.57
2022-11-21T17:48:59.101Z,4.95
2022-11-21T17:51:29.932Z,6.97
2022-11-21T17:53:57.966Z,7.22
2022-11-21T17:56:27.981Z,11.13
2022-11-21T17:58:55.679Z,6.55
2022-11-21T18:01:23.152Z,6.22
2022-11-21T18:03:57.672Z,6.35
2022-11-21T18:06:27.285Z,4.88
2022-11-21T18:08:56.361Z,5.40
2022-11-21T18:11:23.792Z,5.70
2022-11-21T18:13:51.230Z,6.68
2022-11-21T18:16:21.191Z,4.45
2022-11-21T18:18:49.810Z,4.65
2022-11-21T18:21:22.484Z,5.50
2022-11-21T18:23:51.938Z,6.05
2022-11-21T18:26:22.211Z,4.13
2022-11-21T18:29:07.186Z,6.13
2022-11-21T18:31:40.145Z,8.45
2022-11-21T18:34:07.618Z,4.38
2022-11-21T18:36:34.990Z,7.07
2022-11-21T18:39:08.910Z,5.22
2022-11-21T18:41:39.562Z,4.05
2022-11-21T18:44:07.259Z,8.77
2022-11-21T18:46:36.667Z,7.68
2022-11-21T18:49:06.956Z,7.80
2022-11-21T18:51:35.868Z,6.60
2022-11-21T18:54:10.380Z,8.50
2022-11-21T18:56:39.113Z,9.23
2022-11-21T18:59:07.231Z,7.93
2022-11-21T19:01:36.652Z,10.23
2022-11-21T19:04:04.411Z,7.15
2022-11-21T19:06:31.933Z,6.72
2022-11-21T19:08:59.584Z,5.18
2022-11-21T19:11:29.432Z,6.97
2022-11-21T19:13:57.867Z,8.70
2022-11-21T19:16:27.257Z,5.53
2022-11-21T19:21:42.647Z,4.45
2022-11-21T19:24:13.226Z,4.93
2022-11-21T19:26:41.248Z,5.82
2022-11-21T19:29:08.821Z,7.60
2022-11-21T19:31:42.605Z,7.07
2022-11-21T19:34:12.927Z,6.35
2022-11-21T19:36:40.223Z,8.15
2022-11-21T19:39:07.690Z,8.07
2022-11-21T19:41:35.036Z,7.03
2022-11-21T19:44:02.664Z,5.43
2022-11-21T19:46:38.808Z,5.63
2022-11-21T19:49:07.834Z,4.80
2022-11-21T19:51:37.625Z,6.20
2022-11-21T19:54:06.225Z,8.38
2022-11-21T19:56:34.140Z,7.50
2022-11-21T19:59:01.366Z,6.63
2022-11-21T20:01:30.818Z,7.18
2022-11-21T20:04:00.629Z,6.38
2022-11-21T20:06:31.003Z,5.53
2022-11-21T20:09:00.447Z,12.73
2022-11-21T20:11:29.299Z,7.35
2022-11-21T20:13:56.855Z,4.85
2022-11-21T20:16:24.104Z,8.05
2022-11-21T20:18:52.719Z,8.13
2022-11-21T20:21:20.214Z,5.20
2022-11-21T20:23:47.979Z,7.13
2022-11-21T20:26:17.863Z,10.15
2022-11-21T20:28:47.682Z,10.52
2022-11-21T20:31:18.143Z,6.78
2022-11-21T20:33:47.914Z,7.80
2022-11-21T20:36:20.662Z,6.70
2022-11-21T20:38:53.873Z,6.35
2022-11-21T20:41:23.455Z,6.78
2022-11-21T20:46:42.810Z,9.50
2022-11-21T20:49:10.310Z,8.82
2022-11-21T20:54:24.994Z,7.15
2022-11-21T20:56:52.318Z,7.00
2022-11-21T20:59:19.534Z,6.68
2022-11-21T21:01:46.970Z,6.40
2022-11-21T21:04:14.273Z,7.10
2022-11-21T21:06:41.647Z,7.38
2022-11-21T21:09:09.006Z,8.48
2022-11-21T21:11:50.945Z,6.78
2022-11-21T21:14:19.333Z,7.45
2022-11-21T21:16:46.633Z,4.47
2022-11-21T21:19:13.889Z,7.57
2022-11-21T21:21:41.645Z,10.40
2022-11-21T21:24:10.996Z,7.80
2022-11-21T21:26:44.520Z,7.07
2022-11-21T21:29:14.980Z,9.07
2022-11-21T21:31:47.070Z,8.30
2022-11-21T21:34:19.292Z,8.43
2022-11-21T21:36:47.060Z,10.65
2022-11-21T21:39:14.460Z,6.65
2022-11-21T21:41:45.765Z,8.60
2022-11-21T21:44:13.125Z,8.80
2022-11-21T21:46:40.343Z,7.35
2022-11-21T21:49:08.115Z,7.10
2022-11-21T21:51:38.684Z,9.40
2022-11-21T21:54:06.885Z,5.18
2022-11-21T21:56:34.236Z,8.48
2022-11-21T21:59:01.521Z,7.47
2022-11-21T22:01:31.234Z,8.13
2022-11-21T22:04:01.474Z,7.65
2022-11-21T22:06:29.794Z,8.32
2022-11-21T22:08:57.157Z,7.47
2022-11-21T22:11:30.099Z,5.85
2022-11-21T22:14:02.970Z,7.22
2022-11-21T22:16:30.918Z,6.65
2022-11-21T22:18:58.810Z,6.60
2022-11-21T22:21:33.769Z,8.38
2022-11-21T22:31:50.025Z,9.57
2022-11-21T22:34:16.726Z,7.63
2022-11-21T22:36:43.958Z,5.22
2022-11-21T22:39:10.540Z,7.25
2022-11-21T22:41:37.836Z,10.30
2022-11-21T22:44:05.269Z,9.65
2022-11-21T22:46:32.696Z,10.88
2022-11-21T22:48:59.958Z,10.20
2022-11-21T22:51:29.363Z,5.63
2022-11-21T22:53:57.278Z,7.85
2022-11-21T22:56:25.732Z,6.22
2022-11-21T22:58:53.481Z,8.15
2022-11-21T23:01:22.941Z,6.30
2022-11-21T23:03:50.292Z,9.60
2022-11-21T23:06:21.227Z,6.95
2022-11-21T23:08:48.926Z,8.80
2022-11-21T23:11:19.208Z,7.97
2022-11-21T23:13:47.810Z,5.28
2022-11-21T23:16:16.093Z,9.93
2022-11-21T23:18:43.682Z,6.88
2022-11-21T23:21:11.984Z,6.88
2022-11-21T23:23:39.242Z,7.65
2022-11-21T23:26:06.991Z,9.05
2022-11-21T23:28:34.342Z,6.88
2022-11-21T23:31:01.713Z,9.05
2022-11-21T23:33:29.272Z,4.50
2022-11-21T23:35:56.644Z,9.13
2022-11-21T23:38:23.895Z,6.70
2022-11-21T23:40:51.295Z,7.72
2022-11-21T23:43:18.960Z,7.68
2022-11-21T23:45:53.810Z,6.60
2022-11-21T23:48:21.979Z,7.38
2022-11-21T23:50:52.207Z,5.03
2022-11-21T23:53:20.111Z,4.50
2022-11-21T23:55:48.328Z,6.20
2022-11-21T23:58:16.474Z,7.05
